SKW3859 KSLC-KGTF
Flight info
| Callsign | SKW3859 |
|---|---|
| Flight time | 1h 8m |
| Altitude | 31000 |
| Route | RUGGD3 HOLTR GTF |
| Aircraft | E75L/M-SDE3GILORVW/S |
Departure
| Time | 2026-04-30 21:01 |
|---|---|
| Airport | Salt Lake City International Airport (KSLC) |
Arrival
| Time | 2026-04-30 22:10 |
|---|---|
| Airport | Great Falls International Airport (KGTF) |
| Time | Latitude | Longitude | Altitude | Speed | Heading |
|---|---|---|---|---|---|
| 2026-04-30 20:35 | 40.78531 | -111.98318 | 4228 ft | 0 kts | 355° |
| 2026-04-30 20:52 | 40.78526 | -111.98317 | 4229 ft | 2 kts | 355° |
| 2026-04-30 20:52 | 40.78511 | -111.98315 | 4229 ft | 2 kts | 355° |
| 2026-04-30 20:52 | 40.78481 | -111.98320 | 4229 ft | 2 kts | 22° |
| 2026-04-30 20:53 | 40.78469 | -111.98328 | 4229 ft | 0 kts | 37° |
| 2026-04-30 20:53 | 40.78467 | -111.98331 | 4229 ft | 0 kts | 38° |
| 2026-04-30 20:53 | 40.78469 | -111.98325 | 4229 ft | 0 kts | 80° |
| 2026-04-30 20:54 | 40.78471 | -111.98286 | 4229 ft | 0 kts | 85° |
| 2026-04-30 20:56 | 40.78473 | -111.98268 | 4229 ft | 8 kts | 85° |
| 2026-04-30 20:56 | 40.78458 | -111.98065 | 4229 ft | 11 kts | 113° |
| 2026-04-30 20:57 | 40.78444 | -111.97960 | 4230 ft | 11 kts | 85° |
| 2026-04-30 20:57 | 40.78452 | -111.97851 | 4230 ft | 11 kts | 83° |
| 2026-04-30 20:57 | 40.78451 | -111.97746 | 4230 ft | 11 kts | 140° |
| 2026-04-30 20:58 | 40.78269 | -111.97720 | 4230 ft | 16 kts | 172° |
| 2026-04-30 20:58 | 40.78138 | -111.97697 | 4231 ft | 20 kts | 175° |
| 2026-04-30 20:58 | 40.77980 | -111.97680 | 4231 ft | 24 kts | 175° |
| 2026-04-30 20:58 | 40.77813 | -111.97697 | 4231 ft | 24 kts | 175° |
| 2026-04-30 20:59 | 40.77554 | -111.97652 | 4232 ft | 8 kts | 84° |
| 2026-04-30 20:59 | 40.77563 | -111.97563 | 4232 ft | 11 kts | 82° |
| 2026-04-30 21:00 | 40.77594 | -111.97347 | 4232 ft | 13 kts | 17° |
| 2026-04-30 21:00 | 40.78194 | -111.97401 | 4231 ft | 95 kts | 357° |
| 2026-04-30 21:01 | 40.80063 | -111.97604 | 4474 ft | 155 kts | 355° |
| 2026-04-30 21:01 | 40.81180 | -111.97673 | 4877 ft | 165 kts | 356° |
| 2026-04-30 21:01 | 40.83542 | -111.97752 | 5897 ft | 177 kts | 355° |
| 2026-04-30 21:02 | 40.84803 | -111.97908 | 6349 ft | 188 kts | 352° |
| 2026-04-30 21:02 | 40.86124 | -111.98128 | 6928 ft | 192 kts | 351° |
| 2026-04-30 21:02 | 40.87450 | -111.98391 | 7421 ft | 202 kts | 351° |
| 2026-04-30 21:02 | 40.88925 | -111.98710 | 7691 ft | 225 kts | 351° |
| 2026-04-30 21:03 | 40.90509 | -111.99035 | 8203 ft | 237 kts | 352° |
| 2026-04-30 21:03 | 40.92195 | -111.99378 | 8498 ft | 259 kts | 352° |
| 2026-04-30 21:03 | 40.94062 | -111.99738 | 8848 ft | 278 kts | 352° |
| 2026-04-30 21:03 | 40.95983 | -112.00089 | 9435 ft | 285 kts | 353° |
| 2026-04-30 21:04 | 40.97973 | -112.00444 | 10148 ft | 287 kts | 353° |
| 2026-04-30 21:04 | 40.99703 | -112.00752 | 12089 ft | 232 kts | 354° |
| 2026-04-30 21:04 | 41.02112 | -112.01157 | 14039 ft | 189 kts | 357° |
| 2026-04-30 21:05 | 41.03557 | -112.01324 | 13994 ft | 221 kts | 359° |
| 2026-04-30 21:05 | 41.05104 | -112.01059 | 14342 ft | 230 kts | 30° |
| 2026-04-30 21:05 | 41.06202 | -111.99554 | 14772 ft | 236 kts | 70° |
| 2026-04-30 21:05 | 41.06673 | -111.97470 | 15266 ft | 242 kts | 72° |
| 2026-04-30 21:06 | 41.07239 | -111.95348 | 15798 ft | 248 kts | 68° |
| 2026-04-30 21:06 | 41.07906 | -111.93171 | 15967 ft | 270 kts | 66° |
| 2026-04-30 21:06 | 41.08694 | -111.90785 | 16030 ft | 295 kts | 65° |
| 2026-04-30 21:06 | 41.09578 | -111.88198 | 16090 ft | 318 kts | 65° |
| 2026-04-30 21:07 | 41.10530 | -111.85450 | 16244 ft | 337 kts | 65° |
| 2026-04-30 21:07 | 41.11497 | -111.82677 | 17210 ft | 328 kts | 64° |
| 2026-04-30 21:07 | 41.12456 | -111.79936 | 17745 ft | 333 kts | 63° |
| 2026-04-30 21:07 | 41.13891 | -111.77470 | 18107 ft | 341 kts | 36° |
| 2026-04-30 21:08 | 41.16005 | -111.76132 | 18538 ft | 345 kts | 11° |
| 2026-04-30 21:08 | 41.18399 | -111.75584 | 19156 ft | 347 kts | 9° |
| 2026-04-30 21:08 | 41.20755 | -111.75047 | 19783 ft | 349 kts | 9° |
| 2026-04-30 21:08 | 41.23171 | -111.74483 | 20408 ft | 351 kts | 9° |
| 2026-04-30 21:09 | 41.25547 | -111.73923 | 21004 ft | 352 kts | 9° |
| 2026-04-30 21:09 | 41.27970 | -111.73351 | 21588 ft | 354 kts | 9° |
| 2026-04-30 21:09 | 41.30425 | -111.72771 | 22125 ft | 358 kts | 9° |
| 2026-04-30 21:09 | 41.32866 | -111.72192 | 22617 ft | 362 kts | 9° |
| 2026-04-30 21:10 | 41.35345 | -111.71604 | 23126 ft | 365 kts | 9° |
| 2026-04-30 21:10 | 41.37867 | -111.71005 | 23643 ft | 368 kts | 9° |
| 2026-04-30 21:10 | 41.40358 | -111.70200 | 24159 ft | 372 kts | 14° |
| 2026-04-30 21:10 | 41.42856 | -111.69222 | 24696 ft | 374 kts | 15° |
| 2026-04-30 21:11 | 41.45346 | -111.68248 | 25184 ft | 377 kts | 15° |
| 2026-04-30 21:11 | 41.47886 | -111.67253 | 25668 ft | 379 kts | 14° |
| 2026-04-30 21:11 | 41.50409 | -111.66264 | 26165 ft | 381 kts | 14° |
| 2026-04-30 21:11 | 41.52976 | -111.65257 | 26626 ft | 383 kts | 14° |
| 2026-04-30 21:12 | 41.55545 | -111.64248 | 27073 ft | 386 kts | 14° |
| 2026-04-30 21:12 | 41.58111 | -111.63240 | 27512 ft | 388 kts | 14° |
| 2026-04-30 21:12 | 41.60706 | -111.62219 | 27928 ft | 391 kts | 14° |
| 2026-04-30 21:12 | 41.63323 | -111.61189 | 28357 ft | 393 kts | 14° |
| 2026-04-30 21:13 | 41.65951 | -111.60153 | 28770 ft | 396 kts | 14° |
| 2026-04-30 21:13 | 41.68630 | -111.59097 | 29164 ft | 399 kts | 14° |
| 2026-04-30 21:13 | 41.71264 | -111.58057 | 29588 ft | 401 kts | 14° |
| 2026-04-30 21:13 | 41.73966 | -111.56990 | 29999 ft | 403 kts | 14° |
| 2026-04-30 21:14 | 41.76638 | -111.55934 | 30387 ft | 405 kts | 14° |
| 2026-04-30 21:14 | 41.79353 | -111.54878 | 30749 ft | 407 kts | 11° |
| 2026-04-30 21:14 | 41.82125 | -111.54180 | 31066 ft | 404 kts | 7° |
| 2026-04-30 21:14 | 41.84883 | -111.53567 | 31133 ft | 409 kts | 7° |
| 2026-04-30 21:15 | 41.90644 | -111.52273 | 31154 ft | 429 kts | 7° |
| 2026-04-30 21:15 | 41.96634 | -111.50919 | 31136 ft | 441 kts | 7° |
| 2026-04-30 21:16 | 42.02618 | -111.49564 | 31127 ft | 439 kts | 7° |
| 2026-04-30 21:16 | 42.08631 | -111.48200 | 31131 ft | 439 kts | 7° |
| 2026-04-30 21:17 | 42.14679 | -111.46825 | 31138 ft | 438 kts | 7° |
| 2026-04-30 21:17 | 42.20689 | -111.45458 | 31147 ft | 438 kts | 7° |
| 2026-04-30 21:18 | 42.26685 | -111.44089 | 31156 ft | 437 kts | 7° |
| 2026-04-30 21:18 | 42.32721 | -111.43336 | 31168 ft | 436 kts | 357° |
| 2026-04-30 21:19 | 42.38801 | -111.43406 | 31160 ft | 436 kts | 358° |
| 2026-04-30 21:19 | 42.44820 | -111.43460 | 31149 ft | 436 kts | 357° |
| 2026-04-30 21:20 | 42.50869 | -111.43514 | 31150 ft | 435 kts | 357° |
| 2026-04-30 21:20 | 42.56927 | -111.43568 | 31148 ft | 435 kts | 357° |
| 2026-04-30 21:21 | 42.62949 | -111.43622 | 31160 ft | 435 kts | 357° |
| 2026-04-30 21:22 | 42.72022 | -111.43703 | 31165 ft | 435 kts | 357° |
| 2026-04-30 21:23 | 42.84118 | -111.43812 | 31175 ft | 434 kts | 358° |
| 2026-04-30 21:23 | 42.93178 | -111.43893 | 31166 ft | 434 kts | 358° |
| 2026-04-30 21:24 | 42.99243 | -111.43948 | 31171 ft | 435 kts | 357° |
| 2026-04-30 21:24 | 43.05255 | -111.44003 | 31171 ft | 435 kts | 357° |
| 2026-04-30 21:25 | 43.14354 | -111.44086 | 31175 ft | 436 kts | 357° |
| 2026-04-30 21:26 | 43.23410 | -111.44168 | 31172 ft | 435 kts | 357° |
| 2026-04-30 21:27 | 43.32460 | -111.44250 | 31180 ft | 434 kts | 357° |
| 2026-04-30 21:27 | 43.38499 | -111.44305 | 31179 ft | 435 kts | 357° |
| 2026-04-30 21:28 | 43.47563 | -111.44389 | 31182 ft | 435 kts | 357° |
| 2026-04-30 21:29 | 43.56639 | -111.44473 | 31182 ft | 434 kts | 357° |
| 2026-04-30 21:30 | 43.71735 | -111.44612 | 31179 ft | 435 kts | 357° |
| 2026-04-30 21:31 | 43.86862 | -111.44752 | 31183 ft | 435 kts | 357° |
| 2026-04-30 21:32 | 43.95919 | -111.44836 | 31190 ft | 435 kts | 357° |
| 2026-04-30 21:32 | 44.01958 | -111.44893 | 31185 ft | 435 kts | 357° |
| 2026-04-30 21:33 | 44.11003 | -111.44978 | 31186 ft | 434 kts | 357° |
| 2026-04-30 21:34 | 44.17043 | -111.45035 | 31207 ft | 432 kts | 358° |
| 2026-04-30 21:34 | 44.26053 | -111.45119 | 31194 ft | 432 kts | 358° |
| 2026-04-30 21:35 | 44.32058 | -111.45177 | 31196 ft | 432 kts | 358° |
| 2026-04-30 21:35 | 44.38040 | -111.45232 | 31195 ft | 430 kts | 358° |
| 2026-04-30 21:36 | 44.44000 | -111.45290 | 31204 ft | 429 kts | 359° |
| 2026-04-30 21:37 | 44.55905 | -111.45403 | 31195 ft | 428 kts | 359° |
| 2026-04-30 21:37 | 44.61854 | -111.45459 | 31203 ft | 428 kts | 359° |
| 2026-04-30 21:38 | 44.67825 | -111.45516 | 31214 ft | 430 kts | 360° |
| 2026-04-30 21:38 | 44.73784 | -111.45573 | 31213 ft | 429 kts | 359° |
| 2026-04-30 21:39 | 44.79741 | -111.45631 | 31207 ft | 430 kts | 360° |
| 2026-04-30 21:39 | 44.85730 | -111.45689 | 31213 ft | 431 kts | 0° |
| 2026-04-30 21:40 | 44.91742 | -111.45746 | 31218 ft | 432 kts | 1° |
| 2026-04-30 21:40 | 44.97685 | -111.45804 | 31206 ft | 430 kts | 1° |
| 2026-04-30 21:41 | 45.03692 | -111.45861 | 31204 ft | 430 kts | 1° |
| 2026-04-30 21:41 | 45.09624 | -111.45919 | 31198 ft | 429 kts | 1° |
| 2026-04-30 21:42 | 45.15625 | -111.45978 | 31217 ft | 426 kts | 1° |
| 2026-04-30 21:42 | 45.21547 | -111.46036 | 31218 ft | 426 kts | 2° |
| 2026-04-30 21:43 | 45.27434 | -111.46093 | 31231 ft | 424 kts | 2° |
| 2026-04-30 21:43 | 45.33298 | -111.46149 | 31234 ft | 423 kts | 2° |
| 2026-04-30 21:44 | 45.39176 | -111.46207 | 31224 ft | 422 kts | 3° |
| 2026-04-30 21:44 | 45.45012 | -111.46265 | 31214 ft | 420 kts | 3° |
| 2026-04-30 21:45 | 45.50846 | -111.46322 | 31216 ft | 419 kts | 3° |
| 2026-04-30 21:45 | 45.56623 | -111.46379 | 31230 ft | 418 kts | 4° |
| 2026-04-30 21:46 | 45.62437 | -111.46436 | 31236 ft | 418 kts | 4° |
| 2026-04-30 21:46 | 45.68227 | -111.46494 | 31228 ft | 416 kts | 4° |
| 2026-04-30 21:47 | 45.73982 | -111.46551 | 31223 ft | 417 kts | 5° |
| 2026-04-30 21:47 | 45.79783 | -111.46609 | 31216 ft | 417 kts | 5° |
| 2026-04-30 21:48 | 45.85520 | -111.46666 | 31213 ft | 415 kts | 5° |
| 2026-04-30 21:48 | 45.88338 | -111.46699 | 31113 ft | 395 kts | 6° |
| 2026-04-30 21:48 | 45.91017 | -111.46725 | 30558 ft | 383 kts | 6° |
| 2026-04-30 21:49 | 45.93671 | -111.46748 | 29583 ft | 381 kts | 6° |
| 2026-04-30 21:49 | 45.96303 | -111.46773 | 28497 ft | 381 kts | 5° |
| 2026-04-30 21:49 | 45.98949 | -111.46799 | 27438 ft | 380 kts | 5° |
| 2026-04-30 21:49 | 46.01559 | -111.46825 | 26471 ft | 377 kts | 5° |
| 2026-04-30 21:50 | 46.04160 | -111.46851 | 25526 ft | 374 kts | 4° |
| 2026-04-30 21:50 | 46.06716 | -111.46878 | 25101 ft | 368 kts | 4° |
| 2026-04-30 21:50 | 46.09288 | -111.46903 | 25120 ft | 369 kts | 4° |
| 2026-04-30 21:50 | 46.11850 | -111.46928 | 25122 ft | 370 kts | 4° |
| 2026-04-30 21:51 | 46.14360 | -111.46954 | 25111 ft | 371 kts | 4° |
| 2026-04-30 21:51 | 46.16925 | -111.46980 | 25107 ft | 369 kts | 4° |
| 2026-04-30 21:51 | 46.19506 | -111.47006 | 25104 ft | 369 kts | 4° |
| 2026-04-30 21:51 | 46.22059 | -111.47031 | 25100 ft | 369 kts | 4° |
| 2026-04-30 21:52 | 46.24628 | -111.47058 | 25095 ft | 368 kts | 4° |
| 2026-04-30 21:52 | 46.27189 | -111.47084 | 25090 ft | 369 kts | 4° |
| 2026-04-30 21:52 | 46.29764 | -111.47109 | 25088 ft | 370 kts | 4° |
| 2026-04-30 21:52 | 46.32329 | -111.47135 | 25081 ft | 370 kts | 4° |
| 2026-04-30 21:53 | 46.34909 | -111.47161 | 24977 ft | 373 kts | 4° |
| 2026-04-30 21:53 | 46.37476 | -111.47188 | 24582 ft | 370 kts | 4° |
| 2026-04-30 21:53 | 46.40032 | -111.47214 | 24181 ft | 366 kts | 4° |
| 2026-04-30 21:53 | 46.42565 | -111.47240 | 23778 ft | 363 kts | 3° |
| 2026-04-30 21:54 | 46.45089 | -111.47265 | 23382 ft | 363 kts | 3° |
| 2026-04-30 21:54 | 46.47576 | -111.47291 | 22988 ft | 361 kts | 3° |
| 2026-04-30 21:54 | 46.50069 | -111.47317 | 22593 ft | 357 kts | 3° |
| 2026-04-30 21:54 | 46.52564 | -111.47341 | 22199 ft | 356 kts | 3° |
| 2026-04-30 21:55 | 46.55016 | -111.47366 | 21806 ft | 355 kts | 3° |
| 2026-04-30 21:55 | 46.57499 | -111.47392 | 21407 ft | 354 kts | 2° |
| 2026-04-30 21:55 | 46.59932 | -111.47417 | 21021 ft | 353 kts | 2° |
| 2026-04-30 21:55 | 46.62385 | -111.47442 | 20631 ft | 352 kts | 2° |
| 2026-04-30 21:56 | 46.64805 | -111.47467 | 20247 ft | 349 kts | 2° |
| 2026-04-30 21:56 | 46.67223 | -111.47491 | 19858 ft | 348 kts | 2° |
| 2026-04-30 21:56 | 46.69655 | -111.47517 | 19459 ft | 347 kts | 2° |
| 2026-04-30 21:56 | 46.72040 | -111.47541 | 19080 ft | 345 kts | 2° |
| 2026-04-30 21:57 | 46.74432 | -111.47566 | 18703 ft | 344 kts | 2° |
| 2026-04-30 21:57 | 46.76833 | -111.47590 | 18142 ft | 346 kts | 2° |
| 2026-04-30 21:57 | 46.79232 | -111.47615 | 17731 ft | 342 kts | 1° |
| 2026-04-30 21:57 | 46.81599 | -111.47639 | 17352 ft | 340 kts | 1° |
| 2026-04-30 21:58 | 46.83954 | -111.47663 | 16984 ft | 339 kts | 1° |
| 2026-04-30 21:58 | 46.86274 | -111.47688 | 16617 ft | 337 kts | 1° |
| 2026-04-30 21:58 | 46.88628 | -111.47712 | 16242 ft | 335 kts | 1° |
| 2026-04-30 21:58 | 46.90930 | -111.47736 | 15882 ft | 335 kts | 1° |
| 2026-04-30 21:59 | 46.93273 | -111.47760 | 15514 ft | 333 kts | 0° |
| 2026-04-30 21:59 | 46.95558 | -111.47707 | 15142 ft | 330 kts | 9° |
| 2026-04-30 21:59 | 46.97744 | -111.46748 | 14809 ft | 330 kts | 20° |
| 2026-04-30 22:00 | 47.02041 | -111.44423 | 14060 ft | 327 kts | 20° |
| 2026-04-30 22:00 | 47.06286 | -111.42100 | 13346 ft | 325 kts | 20° |
| 2026-04-30 22:00 | 47.08405 | -111.40938 | 12977 ft | 323 kts | 19° |
| 2026-04-30 22:01 | 47.10518 | -111.39777 | 12623 ft | 323 kts | 19° |
| 2026-04-30 22:01 | 47.12608 | -111.38628 | 12274 ft | 322 kts | 19° |
| 2026-04-30 22:01 | 47.14702 | -111.37476 | 11914 ft | 320 kts | 19° |
| 2026-04-30 22:01 | 47.16780 | -111.36332 | 11551 ft | 316 kts | 19° |
| 2026-04-30 22:02 | 47.18812 | -111.35211 | 11206 ft | 310 kts | 19° |
| 2026-04-30 22:02 | 47.20821 | -111.34103 | 10863 ft | 303 kts | 20° |
| 2026-04-30 22:02 | 47.22758 | -111.33034 | 10535 ft | 296 kts | 20° |
| 2026-04-30 22:02 | 47.24683 | -111.31970 | 10209 ft | 290 kts | 20° |
| 2026-04-30 22:03 | 47.26537 | -111.30945 | 9900 ft | 283 kts | 20° |
| 2026-04-30 22:03 | 47.28361 | -111.29935 | 9589 ft | 281 kts | 20° |
| 2026-04-30 22:03 | 47.30174 | -111.28931 | 9280 ft | 279 kts | 20° |
| 2026-04-30 22:03 | 47.32016 | -111.27909 | 8977 ft | 280 kts | 20° |
| 2026-04-30 22:04 | 47.33818 | -111.26910 | 8690 ft | 278 kts | 20° |
| 2026-04-30 22:04 | 47.35604 | -111.25918 | 8431 ft | 267 kts | 20° |
| 2026-04-30 22:04 | 47.38937 | -111.24066 | 7874 ft | 250 kts | 20° |
| 2026-04-30 22:05 | 47.40553 | -111.23167 | 7599 ft | 243 kts | 20° |
| 2026-04-30 22:05 | 47.42116 | -111.22297 | 7333 ft | 236 kts | 20° |
| 2026-04-30 22:05 | 47.43632 | -111.21453 | 7075 ft | 230 kts | 20° |
| 2026-04-30 22:05 | 47.45102 | -111.20634 | 6824 ft | 224 kts | 20° |
| 2026-04-30 22:06 | 47.46539 | -111.19833 | 6582 ft | 219 kts | 20° |
| 2026-04-30 22:06 | 47.49392 | -111.19814 | 6157 ft | 203 kts | 345° |
| 2026-04-30 22:06 | 47.50739 | -111.20349 | 5927 ft | 199 kts | 345° |
| 2026-04-30 22:07 | 47.52027 | -111.21032 | 5729 ft | 192 kts | 322° |
| 2026-04-30 22:07 | 47.52709 | -111.22641 | 5558 ft | 192 kts | 279° |
| 2026-04-30 22:07 | 47.52735 | -111.24648 | 5380 ft | 195 kts | 270° |
| 2026-04-30 22:07 | 47.52690 | -111.26639 | 5167 ft | 191 kts | 269° |
| 2026-04-30 22:08 | 47.52633 | -111.28516 | 4908 ft | 174 kts | 269° |
| 2026-04-30 22:08 | 47.52352 | -111.30141 | 4641 ft | 161 kts | 237° |
| 2026-04-30 22:08 | 47.51634 | -111.31329 | 4399 ft | 148 kts | 229° |
| 2026-04-30 22:08 | 47.50950 | -111.32384 | 4167 ft | 139 kts | 230° |
| 2026-04-30 22:09 | 47.50287 | -111.33419 | 3977 ft | 137 kts | 229° |
| 2026-04-30 22:09 | 47.49618 | -111.34409 | 3843 ft | 139 kts | 228° |
| 2026-04-30 22:09 | 47.48941 | -111.35419 | 3696 ft | 136 kts | 228° |
| 2026-04-30 22:09 | 47.48310 | -111.36350 | 3666 ft | 106 kts | 226° |
| 2026-04-30 22:10 | 47.48029 | -111.36758 | 3668 ft | 13 kts | 185° |
| 2026-04-30 22:10 | 47.47981 | -111.36669 | 3668 ft | 10 kts | 140° |
| 2026-04-30 22:10 | 47.47971 | -111.36586 | 3668 ft | 8 kts | 66° |
| 2026-04-30 22:10 | 47.48011 | -111.36519 | 3668 ft | 9 kts | 45° |
| 2026-04-30 22:11 | 47.48155 | -111.36309 | 3667 ft | 21 kts | 45° |
| 2026-04-30 22:11 | 47.48262 | -111.36153 | 3666 ft | 22 kts | 44° |
| 2026-04-30 22:11 | 47.48374 | -111.35986 | 3665 ft | 23 kts | 45° |
| 2026-04-30 22:12 | 47.48492 | -111.35813 | 3663 ft | 24 kts | 45° |
| 2026-04-30 22:12 | 47.48586 | -111.35648 | 3661 ft | 13 kts | 96° |
| 2026-04-30 22:12 | 47.48509 | -111.35607 | 3662 ft | 13 kts | 189° |
| 2026-04-30 22:12 | 47.48420 | -111.35629 | 3664 ft | 12 kts | 190° |
| 2026-04-30 22:13 | 47.48336 | -111.35652 | 3665 ft | 12 kts | 182° |
| 2026-04-30 22:13 | 47.48297 | -111.35652 | 3665 ft | 0 kts | 181° |